Kralendijk, Netherlands Antilles
Current Conditions -  °F | °C
As of 10:00 PM on Monday 24 Nov 2014 (Local Time) from TNCC Reporting Station
Scattered Clouds Scattered Clouds  
Wind Chill: 28°   Ceiling: Unl
Heat Index: 33°   Visibility: 6mi
Dew Point: 25°   Wind: 13mph
Humidity: 84%   Direction: 110°ESE
Pressure: 29.91"   Gusts: NA
Location:  12.15°N, 68.28°W
Report Text: TNCC 250200Z 11011KT 9999 SCT017 28/25 Q1013 NOSIG
Loading
Personal Weather Stations






























Interactive Weather Map New forecast layout! Learn more

10-Day Weather Forecast

Advertisements
Track Severe Weather on mobile